Fort Dodge, Iowa
Current Conditions -  °F | °C
As of 11:55 PM on Thursday 27 Nov 2014 (Local Time) from KFOD Reporting Station
Few Clouds Few Clouds  
Wind Chill:   Ceiling: Unl
Heat Index: 12°   Visibility: 10mi
Dew Point:   Wind: 8mph
Humidity: 62%   Direction: 140°SE
Pressure: 30.2"   Gusts: NA
Location:  42.5°N, 94.18°W
Report Text: KFOD 280555Z AUTO 14007KT 10SM FEW120 M11/M17 A3020 RMK AO1 11110 21150 57034
Loading
Personal Weather Stations






























Interactive Weather Map New forecast layout! Learn more

10-Day Weather Forecast

Advertisements
Track Severe Weather on mobile